Time;durP1;ratioP1;P1;durP2;ratioP2;P2;SDS_P1;SDS_P2;PMS_P1;PMS_P2;Temp;Humidity;BMP_temperature;BMP_pressure;BME280_temperature;BME280_humidity;BME280_pressure;Samples;Min_cycle;Max_cycle;Signal;HPM_P1;HPM_P2
2022/04/25 00:02:22;;;;;;;2.60;1.42;;;;;;;10.46;62.40;101078.25;4993524;28;96478;-34
2022/04/25 00:04:47;;;;;;;4.25;1.33;;;;;;;10.45;63.33;101073.81;4992680;28;113260;-34
2022/04/25 00:07:13;;;;;;;3.38;1.73;;;;;;;10.43;62.19;101091.97;4991921;28;122301;-34
2022/04/25 00:09:38;;;;;;;3.53;1.65;;;;;;;10.31;62.62;101080.00;4992961;28;97750;-34
2022/04/25 00:12:04;;;;;;;5.47;1.73;;;;;;;10.37;62.99;101090.50;4991646;28;113009;-34
2022/04/25 00:14:29;;;;;;;2.85;1.45;;;;;;;10.35;62.38;101087.00;4992736;28;96727;-34
2022/04/25 00:16:56;;;;;;;2.45;1.55;;;;;;;10.34;63.29;101094.22;4992820;28;97874;-34
2022/04/25 00:19:25;;;;;;;3.45;1.75;;;;;;;10.34;62.35;101083.41;4992707;28;98960;-35
2022/04/25 00:21:51;;;;;;;4.60;1.65;;;;;;;10.23;62.86;101071.44;4991427;28;96657;-34
2022/04/25 00:24:17;;;;;;;2.78;1.55;;;;;;;10.29;62.20;101085.50;4992587;28;96874;-34
2022/04/25 00:26:42;;;;;;;2.95;1.67;;;;;;;10.21;63.60;101082.31;4991139;28;101014;-34
2022/04/25 00:29:07;;;;;;;4.95;1.90;;;;;;;10.23;62.41;101083.13;4991983;28;127344;-34
2022/04/25 00:31:33;;;;;;;2.78;1.52;;;;;;;10.21;61.76;101076.91;4991820;28;118859;-34
2022/04/25 00:33:58;;;;;;;4.30;1.63;;;;;;;10.20;62.90;101085.97;4992886;28;96830;-34
2022/04/25 00:36:23;;;;;;;4.32;2.10;;;;;;;10.18;63.13;101087.91;4991260;28;120796;-34
2022/04/25 00:38:49;;;;;;;4.47;1.98;;;;;;;10.10;62.73;101084.75;4991738;28;120201;-35
2022/04/25 00:41:14;;;;;;;6.38;2.38;;;;;;;10.10;63.70;101091.03;4992746;28;96491;-35
2022/04/25 00:43:39;;;;;;;4.53;1.35;;;;;;;10.11;63.50;101090.09;4992430;28;96795;-34
2022/04/25 00:46:06;;;;;;;3.95;1.85;;;;;;;10.04;63.78;101075.16;4992513;28;97394;-34
2022/04/25 00:48:31;;;;;;;5.32;2.58;;;;;;;10.09;63.10;101086.59;4990995;28;102380;-34
2022/04/25 00:51:05;;;;;;;2.70;1.65;;;;;;;10.04;63.43;101093.22;4991634;28;119315;-34
2022/04/25 00:53:30;;;;;;;2.70;1.45;;;;;;;9.96;63.54;101081.00;4991209;28;117325;-34
2022/04/25 00:55:56;;;;;;;3.28;2.00;;;;;;;9.98;62.78;101070.06;4991877;28;123350;-34
2022/04/25 00:58:21;;;;;;;3.15;1.60;;;;;;;10.00;62.96;101074.44;4992395;28;97199;-34
2022/04/25 01:00:46;;;;;;;3.90;1.90;;;;;;;9.93;63.95;101073.03;4992014;28;96618;-34
2022/04/25 01:03:13;;;;;;;3.65;1.55;;;;;;;9.97;63.15;101082.72;4992029;28;102304;-34
2022/04/25 01:05:38;;;;;;;4.53;2.08;;;;;;;9.88;64.14;101069.72;4991485;28;99563;-35
2022/04/25 01:08:06;;;;;;;3.20;1.77;;;;;;;9.91;63.38;101074.06;4991586;28;100362;-34
2022/04/25 01:10:31;;;;;;;3.17;1.98;;;;;;;9.85;63.95;101075.28;4990608;28;97162;-34
2022/04/25 01:12:56;;;;;;;5.63;2.50;;;;;;;9.83;64.18;101077.22;4992496;28;96701;-34
2022/04/25 01:15:22;;;;;;;4.43;2.25;;;;;;;9.86;64.86;101073.47;4991643;28;111649;-34
2022/04/25 01:17:47;;;;;;;4.80;2.03;;;;;;;9.91;64.92;101071.38;4992629;28;97295;-34
2022/04/25 01:20:13;;;;;;;3.25;2.00;;;;;;;9.92;63.52;101078.53;4992220;28;96480;-34
2022/04/25 01:22:55;;;;;;;6.20;2.30;;;;;;;9.82;64.07;101052.94;4991228;28;113925;-34
2022/04/25 01:28:05;;;;;;;3.63;1.70;;;;;;;9.77;63.99;101073.03;4992140;28;97049;-34
2022/04/25 01:30:31;;;;;;;4.25;1.70;;;;;;;9.65;64.24;101072.78;4992323;28;96565;-34
2022/04/25 01:32:57;;;;;;;4.43;1.90;;;;;;;9.62;64.05;101065.72;4990390;28;96817;-34
2022/04/25 01:35:23;;;;;;;3.40;1.80;;;;;;;9.68;64.43;101064.53;4990404;28;100945;-34
2022/04/25 01:37:48;;;;;;;3.92;2.35;;;;;;;9.66;63.51;101069.16;4991730;28;97307;-34
2022/04/25 01:40:14;;;;;;;4.68;1.63;;;;;;;9.65;63.30;101062.84;4992372;28;96620;-34
2022/04/25 01:42:39;;;;;;;4.57;2.30;;;;;;;9.59;64.56;101067.72;4992085;28;96776;-34
2022/04/25 01:45:05;;;;;;;7.20;2.47;;;;;;;9.64;63.71;101069.22;4991854;28;97712;-34
2022/04/25 01:47:30;;;;;;;4.05;1.75;;;;;;;9.65;64.80;101062.84;4989908;28;100714;-34
2022/04/25 01:49:56;;;;;;;3.50;2.00;;;;;;;9.53;63.58;101044.56;4991000;28;101180;-34
2022/04/25 01:52:28;;;;;;;4.43;2.10;;;;;;;9.45;64.45;101053.13;4990876;28;116515;-34
2022/04/25 01:54:53;;;;;;;3.08;1.77;;;;;;;9.55;64.35;101067.88;4990082;28;101044;-34
2022/04/25 01:57:19;;;;;;;4.70;1.83;;;;;;;9.57;65.74;101074.09;4991542;28;101072;-34
2022/04/25 01:59:45;;;;;;;3.63;2.20;;;;;;;9.58;64.37;101074.94;4991587;28;96430;-34
2022/04/25 02:02:11;;;;;;;3.65;2.00;;;;;;;9.48;65.51;101063.75;4991189;28;96850;-34
2022/04/25 02:04:38;;;;;;;5.22;2.10;;;;;;;9.53;65.39;101068.91;4990414;28;100996;-34
2022/04/25 02:07:05;;;;;;;4.72;2.22;;;;;;;9.55;64.18;101067.88;4993590;28;100957;-34
2022/04/25 02:09:31;;;;;;;2.70;1.73;;;;;;;9.58;64.61;101066.84;4993656;28;96506;-34
2022/04/25 02:11:56;;;;;;;5.95;1.88;;;;;;;9.61;64.69;101077.50;4994896;28;96739;-34
2022/04/25 02:14:22;;;;;;;4.47;2.15;;;;;;;9.57;64.25;101076.78;4993537;28;127367;-35
2022/04/25 02:16:47;;;;;;;2.95;1.80;;;;;;;9.62;63.52;101072.97;4993256;28;100741;-34
2022/04/25 02:19:12;;;;;;;3.55;2.30;;;;;;;9.53;64.56;101069.81;4994824;28;96521;-34
2022/04/25 02:21:38;;;;;;;2.90;1.77;;;;;;;9.54;64.17;101058.03;4994114;28;122207;-34
2022/04/25 02:24:03;;;;;;;3.97;2.15;;;;;;;9.55;65.62;101064.31;4993555;28;126344;-34
2022/04/25 02:26:29;;;;;;;4.60;2.10;;;;;;;9.59;63.78;101065.03;4994694;28;97688;-34
2022/04/25 02:29:00;;;;;;;3.85;2.30;;;;;;;9.60;64.85;101067.63;4994830;28;96494;-34
2022/04/25 02:31:25;;;;;;;3.40;2.17;;;;;;;9.54;64.54;101054.47;4994391;28;110737;-34
2022/04/25 02:33:50;;;;;;;3.65;1.77;;;;;;;9.59;64.18;101062.31;4994558;28;97820;-34
2022/04/25 02:36:16;;;;;;;6.68;2.08;;;;;;;9.62;64.77;101056.75;4994405;28;99104;-34
2022/04/25 02:38:42;;;;;;;3.60;1.73;;;;;;;9.52;64.64;101046.41;4992490;28;96919;-34
2022/04/25 02:41:09;;;;;;;4.00;2.03;;;;;;;9.58;63.83;101058.72;4994186;28;96831;-34
2022/04/25 02:43:42;;;;;;;4.15;2.10;;;;;;;9.54;64.88;101058.03;4994083;28;99428;-35
2022/04/25 02:46:13;;;;;;;4.28;2.10;;;;;;;9.60;64.15;101064.94;4992691;28;100957;-34
2022/04/25 02:48:40;;;;;;;4.82;2.28;;;;;;;9.55;64.03;101061.59;4994477;28;96705;-34
2022/04/25 02:51:06;;;;;;;3.88;1.77;;;;;;;9.55;64.24;101064.31;4992866;28;96785;-34
2022/04/25 02:53:33;;;;;;;3.45;1.63;;;;;;;9.57;64.01;101059.69;4992953;28;100809;-34
2022/04/25 02:55:59;;;;;;;4.95;2.03;;;;;;;9.44;64.67;101032.44;4993074;28;101090;-34
2022/04/25 02:58:25;;;;;;;4.45;2.20;;;;;;;9.53;63.91;101060.81;4992706;28;96862;-34
2022/04/25 03:00:52;;;;;;;4.40;2.00;;;;;;;9.52;64.44;101068.06;4992714;28;96805;-34
2022/04/25 03:03:19;;;;;;;4.40;1.80;;;;;;;9.56;65.26;101068.78;4991999;28;100885;-34
2022/04/25 03:05:47;;;;;;;3.75;1.60;;;;;;;9.50;65.13;101050.16;4992328;28;101067;-34
2022/04/25 03:08:14;;;;;;;3.50;2.28;;;;;;;9.45;64.94;101050.41;4992361;28;96780;-34
2022/04/25 03:10:42;;;;;;;2.60;1.83;;;;;;;9.49;65.81;101056.53;4992285;28;97024;-34
2022/04/25 03:13:08;;;;;;;7.65;1.83;;;;;;;9.52;65.13;101054.53;4992340;28;100826;-34
2022/04/25 03:15:34;;;;;;;2.13;1.42;;;;;;;9.50;65.45;101048.31;4991978;28;101311;-34
2022/04/25 03:18:00;;;;;;;7.95;2.28;;;;;;;9.52;64.57;101042.84;4992446;28;96594;-34
2022/04/25 03:20:27;;;;;;;2.47;1.63;;;;;;;9.60;65.01;101054.09;4992792;28;96726;-34
2022/04/25 03:22:52;;;;;;;8.13;2.28;;;;;;;9.58;64.42;101058.72;4992347;28;101003;-34
2022/04/25 03:25:17;;;;;;;3.75;1.95;;;;;;;9.63;65.10;101061.19;4992842;28;119134;-34
2022/04/25 03:27:42;;;;;;;2.83;1.65;;;;;;;9.64;64.41;101044.88;4992324;28;122790;-34
2022/04/25 03:30:08;;;;;;;4.28;1.85;;;;;;;9.68;65.61;101057.28;4993124;28;115497;-34
2022/04/25 03:32:45;;;;;;;5.15;2.00;;;;;;;9.63;65.19;101050.34;4993587;28;97376;-34
2022/04/25 03:35:11;;;;;;;3.80;2.13;;;;;;;9.68;64.47;101061.81;4993496;28;98608;-34
2022/04/25 03:37:37;;;;;;;2.45;1.67;;;;;;;9.63;65.24;101051.25;4992167;28;96593;-34
2022/04/25 03:40:05;;;;;;;3.38;1.90;;;;;;;9.61;64.87;101047.75;4993495;28;96516;-34
2022/04/25 03:42:30;;;;;;;2.70;1.80;;;;;;;9.59;65.18;101051.50;4992034;28;101224;-34
2022/04/25 03:44:55;;;;;;;3.28;1.67;;;;;;;9.52;65.11;101049.13;4993767;28;97499;-34
2022/04/25 03:47:21;;;;;;;5.28;1.85;;;;;;;9.60;65.19;101053.25;4993243;28;96463;-34
2022/04/25 03:49:46;;;;;;;7.13;1.67;;;;;;;9.62;65.01;101057.59;4992433;28;121780;-34
2022/04/25 03:52:11;;;;;;;3.70;1.77;;;;;;;9.52;65.68;101051.81;4991970;28;126956;-34
2022/04/25 03:57:20;;;;;;;4.43;2.08;;;;;;;9.46;65.58;101057.59;4993713;28;96582;-34
2022/04/25 03:59:46;;;;;;;4.72;2.17;;;;;;;9.49;66.35;101059.25;4993360;28;96743;-34
2022/04/25 04:02:11;;;;;;;3.15;1.83;;;;;;;9.51;64.86;101054.59;4992893;28;99589;-34
2022/04/25 04:04:36;;;;;;;2.63;1.70;;;;;;;9.47;65.75;101053.91;4991973;28;121347;-34
2022/04/25 04:07:02;;;;;;;3.15;1.92;;;;;;;9.43;65.68;101049.59;4991257;28;96585;-34
2022/04/25 04:09:46;;;;;;;7.30;2.15;;;;;;;9.41;65.91;101047.94;4993343;28;96843;-34
2022/04/25 04:12:17;;;;;;;8.35;1.80;;;;;;;9.50;65.78;101063.69;4991988;28;97940;-34
2022/04/25 04:14:43;;;;;;;3.13;1.98;;;;;;;9.40;66.01;101046.22;4991426;28;100947;-34
2022/04/25 04:17:08;;;;;;;5.55;1.95;;;;;;;9.43;65.60;101048.75;4990982;28;97013;-34
2022/04/25 04:19:38;;;;;;;3.40;1.92;;;;;;;9.48;64.73;101061.03;4991244;28;96832;-34
2022/04/25 04:22:04;;;;;;;4.55;1.48;;;;;;;9.37;65.96;101047.25;4992612;28;97935;-34
2022/04/25 04:24:34;;;;;;;3.03;1.75;;;;;;;9.38;65.61;101050.81;4991393;28;100835;-34
2022/04/25 04:27:04;;;;;;;3.88;1.55;;;;;;;9.39;65.54;101063.38;4991179;28;96626;-34
2022/04/25 04:29:33;;;;;;;1.73;1.15;;;;;;;9.44;64.86;101077.50;4992352;28;96795;-34
2022/04/25 04:32:05;;;;;;;3.80;1.58;;;;;;;9.44;66.18;101067.59;4991045;28;101069;-34
2022/04/25 04:34:31;;;;;;;2.85;1.25;;;;;;;9.40;66.04;101065.13;4993112;28;97819;-34
2022/04/25 04:36:56;;;;;;;1.95;1.35;;;;;;;9.42;65.71;101083.03;4992878;28;96757;-34
2022/04/25 04:39:21;;;;;;;1.77;0.98;;;;;;;9.31;66.61;101071.91;4992650;28;96903;-34
2022/04/25 04:41:47;;;;;;;2.88;1.30;;;;;;;9.39;66.42;101085.00;4991763;28;113396;-34
2022/04/25 04:44:13;;;;;;;2.97;1.13;;;;;;;9.39;66.73;101085.00;4992233;28;99473;-34
2022/04/25 04:46:38;;;;;;;1.45;0.80;;;;;;;9.33;66.22;101078.09;4990758;28;96790;-34
2022/04/25 04:49:04;;;;;;;6.10;1.60;;;;;;;9.42;66.28;101099.25;4990350;28;118346;-34
2022/04/25 04:51:29;;;;;;;1.10;1.00;;;;;;;9.40;65.89;101087.63;4992698;28;97310;-34
2022/04/25 04:53:59;;;;;;;2.40;1.30;;;;;;;9.40;66.07;101097.59;4992484;28;97782;-34
2022/04/25 04:56:25;;;;;;;1.63;1.10;;;;;;;9.51;66.54;101105.97;4990915;28;96526;-34
2022/04/25 04:58:50;;;;;;;1.38;1.02;;;;;;;9.51;65.88;101111.38;4992766;28;96722;-34
2022/04/25 05:01:15;;;;;;;2.60;1.33;;;;;;;9.48;67.21;101103.44;4992092;28;97740;-34
2022/04/25 05:03:41;;;;;;;2.35;1.27;;;;;;;9.47;65.33;101099.88;4991250;28;126538;-34
2022/04/25 05:06:07;;;;;;;2.13;1.30;;;;;;;9.49;65.93;101116.03;4991715;28;96794;-34
2022/04/25 05:08:33;;;;;;;3.35;1.45;;;;;;;9.48;66.22;101108.84;4990609;28;96827;-34
2022/04/25 05:10:58;;;;;;;3.13;1.40;;;;;;;9.49;65.74;101102.50;4991629;28;99302;-34
2022/04/25 05:13:23;;;;;;;2.13;1.30;;;;;;;9.57;66.39;101125.47;4991165;28;126114;-34
2022/04/25 05:15:48;;;;;;;2.05;1.08;;;;;;;9.61;66.07;101128.03;4990808;28;123566;-34
2022/04/25 05:18:14;;;;;;;4.00;1.30;;;;;;;9.59;65.65;101117.28;4991672;28;104660;-34
2022/04/25 05:20:39;;;;;;;3.22;1.90;;;;;;;9.54;66.16;101108.53;4991882;28;98294;-34
2022/04/25 05:23:05;;;;;;;3.55;2.17;;;;;;;9.60;65.62;101119.00;4991346;28;125932;-34
2022/04/25 05:25:30;;;;;;;7.32;2.13;;;;;;;9.57;66.23;101120.06;4992107;28;96421;-34
2022/04/25 05:27:56;;;;;;;5.20;2.00;;;;;;;9.64;66.30;101134.13;4992170;28;96815;-34
2022/04/25 05:30:24;;;;;;;2.30;1.42;;;;;;;9.63;66.77;101134.19;4990857;28;99421;-34
2022/04/25 05:32:53;;;;;;;4.22;2.08;;;;;;;9.65;66.21;101135.00;4990399;28;100556;-34
2022/04/25 05:35:24;;;;;;;3.97;1.88;;;;;;;9.68;66.93;101137.56;4990595;28;96759;-34
2022/04/25 05:37:51;;;;;;;6.18;2.42;;;;;;;9.67;65.94;101136.66;4990852;28;96632;-34
2022/04/25 05:40:17;;;;;;;3.35;2.00;;;;;;;9.74;66.18;101145.34;4993113;28;101085;-34
2022/04/25 05:42:44;;;;;;;4.97;2.10;;;;;;;9.72;66.01;101129.16;4993777;28;101042;-34
2022/04/25 05:45:10;;;;;;;3.22;1.88;;;;;;;9.75;65.93;101138.97;4993874;28;96518;-34
2022/04/25 05:47:37;;;;;;;3.15;1.80;;;;;;;9.82;66.57;101150.31;4994104;28;96838;-34
2022/04/25 05:52:48;;;;;;;4.78;2.22;;;;;;;9.86;65.86;101135.69;4995586;28;97039;-34
2022/04/25 05:55:14;;;;;;;3.75;2.13;;;;;;;9.87;65.51;101142.88;4994762;28;96499;-34
2022/04/25 05:57:43;;;;;;;8.80;2.70;;;;;;;9.84;65.98;101140.31;4995003;28;96811;-34
2022/04/25 06:00:10;;;;;;;5.65;2.90;;;;;;;9.82;66.43;101142.22;4993567;28;100918;-34
2022/04/25 06:02:37;;;;;;;8.52;3.05;;;;;;;9.89;66.23;101143.63;4993471;28;100611;-34
2022/04/25 06:05:03;;;;;;;4.00;2.10;;;;;;;9.91;65.14;101153.41;4993459;28;98862;-34
2022/04/25 06:07:28;;;;;;;5.57;2.40;;;;;;;9.85;66.64;101158.31;4993322;28;96847;-34
2022/04/25 06:09:53;;;;;;;5.40;2.50;;;;;;;9.85;66.27;101159.16;4993557;28;117526;-34
2022/04/25 06:12:19;;;;;;;6.10;3.45;;;;;;;9.85;65.60;101163.72;4994560;28;114498;-34
2022/04/25 06:14:44;;;;;;;6.65;2.97;;;;;;;9.86;66.04;101160.03;4994702;28;104556;-34
2022/04/25 06:17:13;;;;;;;5.88;2.80;;;;;;;9.82;66.03;101162.06;4994623;28;96765;-34
2022/04/25 06:19:39;;;;;;;8.35;3.05;;;;;;;9.90;67.33;101165.22;4992659;28;100864;-34
2022/04/25 06:22:04;;;;;;;5.43;2.72;;;;;;;9.88;65.80;101168.94;4994811;28;97302;-34
2022/04/25 06:24:29;;;;;;;7.30;3.72;;;;;;;9.83;65.98;101158.38;4994583;28;96886;-34
2022/04/25 06:26:55;;;;;;;6.35;3.13;;;;;;;9.88;67.35;101177.94;4993747;28;121650;-34
2022/04/25 06:29:21;;;;;;;6.68;3.13;;;;;;;9.87;67.77;101172.63;4994411;28;99476;-34
2022/04/25 06:31:46;;;;;;;6.85;3.33;;;;;;;9.80;66.04;101163.97;4993112;28;100808;-34
2022/04/25 06:34:12;;;;;;;8.15;3.40;;;;;;;9.86;66.26;101176.28;4994664;28;96555;-34
2022/04/25 06:36:37;;;;;;;7.28;2.85;;;;;;;9.83;66.90;101168.31;4994328;28;121498;-34
2022/04/25 06:39:03;;;;;;;5.38;3.03;;;;;;;9.82;66.09;101166.56;4994048;28;99148;-34
2022/04/25 06:41:30;;;;;;;4.55;2.45;;;;;;;9.87;67.88;101172.63;4992833;28;100957;-34
2022/04/25 06:43:55;;;;;;;3.65;2.35;;;;;;;9.94;66.55;101193.84;4992516;28;97437;-34
2022/04/25 06:46:20;;;;;;;8.55;2.70;;;;;;;9.94;67.03;101188.44;4994101;28;96936;-34
2022/04/25 06:49:19;;;;;;;4.55;2.85;;;;;;;9.92;66.00;101190.34;4993313;28;126459;-34
2022/04/25 06:51:31;;;;;;;4.07;2.22;;;;;;;9.87;66.32;101186.16;4992962;28;97710;-34
2022/04/25 06:53:56;;;;;;;5.95;2.85;;;;;;;9.88;66.37;101190.59;4994418;28;96455;-34
2022/04/25 06:56:22;;;;;;;3.70;2.42;;;;;;;9.91;67.14;101198.53;4993945;28;104402;-34
2022/04/25 06:58:47;;;;;;;5.32;2.92;;;;;;;9.91;66.53;101201.25;4992759;28;99944;-34
2022/04/25 07:01:13;;;;;;;5.95;3.17;;;;;;;9.90;67.19;101205.78;4994409;28;99695;-34
2022/04/25 07:03:38;;;;;;;3.88;2.22;;;;;;;9.90;66.33;101202.22;4994242;28;96599;-34
2022/04/25 07:06:04;;;;;;;7.55;3.40;;;;;;;9.85;66.41;101210.56;4992946;28;114392;-34
2022/04/25 07:08:29;;;;;;;7.25;3.17;;;;;;;9.79;67.05;101203.63;4991723;28;100700;-34
2022/04/25 07:10:54;;;;;;;10.57;2.58;;;;;;;9.88;67.29;101206.84;4993363;28;97952;-34
2022/04/25 07:13:20;;;;;;;7.65;3.72;;;;;;;9.83;68.25;101206.22;4993955;28;96502;-34
2022/04/25 07:15:45;;;;;;;6.68;2.75;;;;;;;9.87;67.59;101202.38;4993186;28;121983;-34
2022/04/25 07:18:13;;;;;;;6.72;2.92;;;;;;;9.82;66.95;101210.75;4993839;28;97958;-34
2022/04/25 07:20:38;;;;;;;6.15;3.42;;;;;;;9.72;66.77;101202.22;4992456;28;97683;-34
2022/04/25 07:31:13;;;;;;;8.75;2.30;;;;;;;9.74;67.74;101212.97;4993632;28;96986;-34
2022/04/25 07:33:43;;;;;;;6.40;3.35;;;;;;;9.77;67.78;101216.41;4993103;28;96652;-34
2022/04/25 07:36:09;;;;;;;7.05;3.00;;;;;;;9.90;67.45;101219.31;4993468;28;96692;-34
2022/04/25 07:38:35;;;;;;;5.93;3.22;;;;;;;9.94;67.98;101209.22;4992120;28;100904;-34
2022/04/25 07:41:01;;;;;;;9.95;3.15;;;;;;;9.96;67.05;101207.28;4991916;28;100947;-34
2022/04/25 07:43:29;;;;;;;4.75;2.88;;;;;;;9.94;68.18;101199.28;4993695;28;96637;-34
2022/04/25 07:45:55;;;;;;;7.78;2.85;;;;;;;10.08;67.83;101208.47;4993251;28;96866;-34
2022/04/25 07:48:20;;;;;;;6.57;3.83;;;;;;;10.15;67.66;101210.78;4991772;28;101079;-34
2022/04/25 07:50:46;;;;;;;4.25;2.10;;;;;;;10.28;68.55;101229.06;4993686;28;98950;-34
2022/04/25 07:53:12;;;;;;;3.67;2.28;;;;;;;10.43;67.81;101216.53;4991883;28;96687;-34
2022/04/25 07:55:37;;;;;;;5.90;2.83;;;;;;;10.63;67.45;101224.44;4993351;28;96854;-34
2022/04/25 07:58:03;;;;;;;5.32;2.65;;;;;;;10.60;67.32;101232.72;4992778;28;98515;-34
2022/04/25 08:00:28;;;;;;;5.45;2.50;;;;;;;10.53;67.72;101231.31;4993079;28;97748;-34
2022/04/25 08:02:54;;;;;;;5.57;2.97;;;;;;;10.50;68.11;101237.78;4991881;28;96745;-34
2022/04/25 08:05:19;;;;;;;5.35;3.03;;;;;;;10.44;67.96;101239.94;4993007;28;96854;-34
2022/04/25 08:07:44;;;;;;;7.60;3.17;;;;;;;10.34;68.86;101234.16;4992640;28;98257;-34
2022/04/25 08:10:16;;;;;;;10.88;3.28;;;;;;;10.39;67.31;101241.09;4991211;28;125533;-34
2022/04/25 08:18:11;;;;;;;9.65;3.22;;;;;;;10.25;68.26;101231.91;4992951;28;96952;-34
2022/04/25 08:20:38;;;;;;;8.00;3.75;;;;;;;10.23;67.14;101250.97;4992668;28;99434;-34
2022/04/25 08:23:05;;;;;;;5.28;2.95;;;;;;;10.12;68.24;101245.25;4991075;28;97264;-34
2022/04/25 08:25:31;;;;;;;5.85;3.10;;;;;;;10.16;67.60;101250.41;4992730;28;96740;-34
2022/04/25 08:27:58;;;;;;;6.00;2.90;;;;;;;10.19;67.92;101250.25;4992373;28;99115;-34
2022/04/25 08:30:23;;;;;;;8.70;3.85;;;;;;;10.16;67.78;101263.09;4991238;28;100870;-34
2022/04/25 08:32:48;;;;;;;8.02;3.47;;;;;;;10.03;68.60;101246.59;4992787;28;96518;-34
2022/04/25 08:35:14;;;;;;;7.40;3.58;;;;;;;10.08;68.04;101255.38;4992902;28;96880;-34
2022/04/25 08:37:40;;;;;;;6.38;2.97;;;;;;;10.05;68.40;101260.94;4992291;28;99119;-34
2022/04/25 08:40:06;;;;;;;11.38;3.42;;;;;;;10.07;68.13;101256.31;4991531;28;101063;-34
2022/04/25 08:42:32;;;;;;;7.22;3.55;;;;;;;10.09;67.94;101256.25;4991258;28;96646;-34
2022/04/25 08:44:59;;;;;;;8.30;3.67;;;;;;;10.06;67.99;101267.22;4992448;28;96594;-34
2022/04/25 08:47:29;;;;;;;6.78;3.30;;;;;;;10.00;68.84;101273.84;4990355;28;100958;-34
2022/04/25 08:49:58;;;;;;;11.52;3.53;;;;;;;10.10;68.16;101275.09;4991079;28;101693;-34
2022/04/25 08:52:27;;;;;;;7.65;3.08;;;;;;;10.16;68.51;101269.38;4990842;28;96789;-34
2022/04/25 08:54:57;;;;;;;5.20;2.67;;;;;;;10.20;68.70;101265.53;4991025;28;96841;-34
2022/04/25 08:57:23;;;;;;;5.82;3.13;;;;;;;10.21;67.46;101256.44;4990935;28;99337;-34
2022/04/25 08:59:50;;;;;;;8.10;4.15;;;;;;;10.32;67.81;101264.06;4990735;28;101250;-34
2022/04/25 09:02:16;;;;;;;6.43;3.13;;;;;;;10.33;67.66;101279.31;4992174;28;96622;-34
2022/04/25 09:04:42;;;;;;;6.45;2.85;;;;;;;10.40;68.97;101275.31;4992496;28;96799;-34
2022/04/25 09:07:07;;;;;;;8.38;3.95;;;;;;;10.42;67.99;101275.25;4990459;28;99856;-34
2022/04/25 09:09:32;;;;;;;6.40;3.25;;;;;;;10.42;68.05;101277.97;4991208;28;126496;-34
2022/04/25 09:12:10;;;;;;;5.13;3.20;;;;;;;10.50;68.41;101278.41;4991396;28;96913;-34
2022/04/25 09:14:37;;;;;;;6.60;2.92;;;;;;;10.43;68.96;101276.13;4990458;28;96722;-34
2022/04/25 09:17:03;;;;;;;10.55;3.97;;;;;;;10.47;68.92;101296.69;4990532;28;101092;-34
2022/04/25 09:19:30;;;;;;;7.97;3.10;;;;;;;10.48;69.99;101291.16;4990536;28;100846;-34
2022/04/25 09:21:55;;;;;;;6.38;3.38;;;;;;;10.56;70.02;101298.88;4990710;28;96558;-34
2022/04/25 09:24:26;;;;;;;6.57;3.05;;;;;;;10.54;70.09;101293.53;4991171;28;121759;-34
2022/04/25 09:27:18;;;;;;;8.35;3.08;;;;;;;10.69;68.66;101304.50;4991615;28;98898;-34
2022/04/25 09:29:46;;;;;;;;;;;;;;;10.74;68.96;101302.41;4987961;28;101235;-34
2022/04/25 09:32:13;;;;;;;4.10;2.60;;;;;;;10.79;68.86;101306.59;4990725;28;96799;-34
2022/04/25 09:37:42;;;;;;;7.28;3.20;;;;;;;10.88;68.69;101309.78;4991463;28;96522;-34
2022/04/25 09:40:08;;;;;;;6.30;3.08;;;;;;;10.81;68.36;101299.28;4990317;28;101195;-34
2022/04/25 09:42:34;;;;;;;6.65;3.13;;;;;;;10.79;69.15;101295.75;4990280;28;96764;-34
2022/04/25 09:45:00;;;;;;;7.28;3.50;;;;;;;10.81;68.21;101306.53;4992001;28;97751;-34
2022/04/25 09:47:28;;;;;;;6.35;2.88;;;;;;;10.89;68.39;101317.81;4990194;28;101159;-34
2022/04/25 09:50:01;;;;;;;6.47;3.25;;;;;;;10.92;68.98;101320.38;4991559;28;99432;-34
2022/04/25 09:52:27;;;;;;;5.88;3.22;;;;;;;10.87;69.68;101319.75;4991579;28;96575;-34
2022/04/25 09:54:52;;;;;;;5.47;2.92;;;;;;;10.85;68.26;101329.81;4991878;28;96808;-34
2022/04/25 09:57:31;;;;;;;5.95;3.30;;;;;;;10.77;68.50;101334.75;4991477;28;97388;-34
2022/04/25 09:59:57;;;;;;;4.68;2.58;;;;;;;10.68;69.06;101316.28;4991283;28;98159;-34
2022/04/25 10:02:22;;;;;;;7.47;3.28;;;;;;;10.72;70.12;101331.41;4989704;28;97647;-34
2022/04/25 10:04:48;;;;;;;5.55;2.90;;;;;;;10.71;69.57;101322.41;4991154;28;96904;-35
2022/04/25 10:07:15;;;;;;;6.88;2.92;;;;;;;10.73;70.35;101338.59;4991188;28;97576;-34
2022/04/25 10:09:44;;;;;;;10.43;3.65;;;;;;;10.65;70.30;101327.28;4989858;28;100717;-34
2022/04/25 10:12:09;;;;;;;5.90;3.38;;;;;;;10.65;69.77;101336.28;4990128;28;96679;-34
2022/04/25 10:14:36;;;;;;;6.85;3.22;;;;;;;10.57;69.51;101339.41;4991291;28;96957;-34
2022/04/25 10:17:02;;;;;;;8.52;3.40;;;;;;;10.57;69.87;101350.25;4989858;28;101181;-34
2022/04/25 10:19:29;;;;;;;5.32;3.15;;;;;;;10.47;69.30;101342.72;4991669;28;97380;-34
2022/04/25 10:21:55;;;;;;;5.72;2.97;;;;;;;10.49;69.33;101341.69;4990949;28;96661;-34
2022/04/25 10:24:21;;;;;;;5.85;2.78;;;;;;;10.44;69.96;101340.16;4989923;28;96846;-34
2022/04/25 10:26:48;;;;;;;6.88;2.90;;;;;;;10.52;70.40;101351.47;4992600;28;97964;-34
2022/04/25 10:29:18;;;;;;;10.10;4.00;;;;;;;10.42;70.16;101345.66;4993172;28;100949;-34
2022/04/25 10:31:47;;;;;;;5.53;3.17;;;;;;;10.39;70.16;101351.22;4993151;28;96598;-34
2022/04/25 10:34:14;;;;;;;7.75;3.15;;;;;;;10.43;69.68;101352.81;4993235;28;96829;-34
2022/04/25 10:36:39;;;;;;;6.40;3.22;;;;;;;10.48;70.56;101360.72;4992786;28;101158;-34
2022/04/25 10:39:29;;;;;;;5.03;2.83;;;;;;;10.49;70.30;101357.94;4994177;28;106761;-34
2022/04/25 10:44:44;;;;;;;5.07;2.85;;;;;;;10.58;70.02;101362.84;4994505;28;96500;-34
2022/04/25 10:47:13;;;;;;;5.33;2.83;;;;;;;10.63;69.85;101362.63;4994142;28;99340;-34
2022/04/25 10:49:58;;;;;;;4.43;2.63;;;;;;;10.56;70.57;101353.94;4992875;28;100712;-34
2022/04/25 10:55:31;;;;;;;6.47;3.45;;;;;;;10.63;70.46;101374.31;4994251;28;96795;-34
2022/04/25 10:58:02;;;;;;;4.55;3.08;;;;;;;10.68;70.83;101384.00;4993038;28;99452;-34
2022/04/25 11:00:37;;;;;;;6.77;3.77;;;;;;;10.61;70.18;101378.94;4993908;28;99279;-34
2022/04/25 11:03:10;;;;;;;5.60;3.13;;;;;;;10.59;69.58;101372.72;4994033;28;96548;-34
2022/04/25 11:05:38;;;;;;;7.32;3.85;;;;;;;10.61;70.43;101383.50;4994100;28;98695;-34
2022/04/25 11:08:34;;;;;;;5.15;2.92;;;;;;;10.59;70.07;101382.69;4992408;28;97340;-34
2022/04/25 11:11:09;;;;;;;7.90;3.10;;;;;;;10.56;69.50;101386.44;4991706;28;100991;-34
2022/04/25 11:14:01;;;;;;;6.75;3.33;;;;;;;10.48;70.55;101385.09;4992505;28;96552;-34
2022/04/25 11:16:28;;;;;;;7.65;3.65;;;;;;;10.54;70.38;101388.34;4993537;28;96794;-34
2022/04/25 11:19:23;;;;;;;6.85;3.25;;;;;;;10.54;70.88;101393.78;4993135;28;97037;-34
2022/04/25 11:21:55;;;;;;;6.68;3.45;;;;;;;10.52;69.68;101386.69;4992677;28;98128;-35
2022/04/25 11:24:33;;;;;;;7.95;5.00;;;;;;;10.52;69.50;101395.69;4991921;28;96683;-34
2022/04/25 11:27:04;;;;;;;6.97;3.60;;;;;;;10.49;69.73;101389.56;4992412;28;96677;-34
2022/04/25 11:29:30;;;;;;;5.07;3.35;;;;;;;10.52;69.98;101400.22;4993771;28;97898;-34
2022/04/25 11:32:27;;;;;;;10.43;4.72;;;;;;;10.49;70.86;101398.56;4993530;28;97757;-34
2022/04/25 11:34:58;;;;;;;8.90;3.88;;;;;;;10.38;70.86;101398.22;4993543;28;96566;-34
2022/04/25 11:37:23;;;;;;;7.55;4.28;;;;;;;10.38;69.97;101399.09;4991010;28;96789;-34
2022/04/25 11:40:01;;;;;;;6.88;4.13;;;;;;;10.38;70.63;101400.94;4992389;28;97955;-35
2022/04/25 11:42:32;;;;;;;6.90;3.90;;;;;;;10.40;69.65;101402.59;4990915;28;100815;-34
2022/04/25 11:44:58;;;;;;;7.43;4.10;;;;;;;10.52;69.42;101406.50;4990557;28;97319;-34
2022/04/25 11:47:24;;;;;;;9.02;4.07;;;;;;;10.56;69.27;101413.53;4990869;28;96874;-35
2022/04/25 11:50:03;;;;;;;6.45;3.55;;;;;;;10.49;69.60;101395.84;4991771;28;100876;-34
2022/04/25 11:52:29;;;;;;;8.93;4.18;;;;;;;10.54;69.27;101412.72;4991823;28;101758;-34
2022/04/25 11:54:55;;;;;;;9.65;4.15;;;;;;;10.64;69.37;101405.00;4993311;28;96485;-34
2022/04/25 11:57:21;;;;;;;11.98;4.40;;;;;;;10.84;68.67;101421.06;4991847;28;96838;-34
2022/04/25 11:59:46;;;;;;;6.25;3.78;;;;;;;10.85;69.58;101419.22;4991600;28;101050;-34